Charles W Clark — WCP7548 — position and weather

sailwx.info

Track history (hours):
 
Tides and Currents Weather Stations Pressure Air Temp Water Temp Dewpoint Dewpoint Depression Visibility Wind Speed Wind Dir Waves Ship Positions

Charles W Clark

Owner: BLESSEY ENTERPRISES INC, HARAHAN, LA. More information available from US FCC via Universal Licensing System and Coast Guard Vessel Documentation Center.

Last reported at 2017-Dec-11 12:42 UTC. Time now 2017-Dec-13 01:47 UTC.
Position N 29°47' W 095°05'.

Length 20 m.

Type: Towing. MMSI: 366933680.

Date/timePositionNaut miles runAvg speedWind from/ knotsBaromVisibWave heightAir tempDewpointWater temp
2017-Dec-11 12:42N 29°47' W 095°05'0 0.1
2017-Dec-11 12:21N 29°47' W 095°05'0 0.8
2017-Dec-11 12:00N 29°47' W 095°04'0 0.9
2017-Dec-11 11:30N 29°47' W 095°04'0 0.7
2017-Dec-11 10:56N 29°47' W 095°05'1 1.3
2017-Dec-11 10:30N 29°46' W 095°05'3 5.2
2017-Dec-11 10:00N 29°44' W 095°03'2 5.0
2017-Dec-11 09:30N 29°42' W 095°01'3 6.2
2017-Dec-11 09:01N 29°40' W 094°58'4 7.1
2017-Dec-11 08:30N 29°37' W 094°57'3 7.1
2017-Dec-11 08:00N 29°34' W 094°55'53 3.3
2017-Dec-10 15:48N 29°50' W 093°57'52 1.1
2017-Dec-08 15:43N 29°31' W 094°53'2 7.7
2017-Dec-08 15:29N 29°32' W 094°54'4 7.6
2017-Dec-08 15:01N 29°35' W 094°56'4 7.4
2017-Dec-08 14:30N 29°39' W 094°58'4 7.5
2017-Dec-08 13:57N 29°42' W 095°01'4 7.1
2017-Dec-08 13:27N 29°45' W 095°04'2 0.1
2017-Dec-08 01:13N 29°46' W 095°05'1 0.7
2017-Dec-08 00:12N 29°46' W 095°06'2 4.2
2017-Dec-07 23:48N 29°47' W 095°05'1 0.0
2017-Dec-06 22:49N 29°47' W 095°05'1 3.1
2017-Dec-06 22:22N 29°46' W 095°05'3 7.3
2017-Dec-06 21:54N 29°44' W 095°08'4 7.3
2017-Dec-06 21:17N 29°43' W 095°13'0 1.4
2017-Dec-06 21:00N 29°44' W 095°14'  
2017-Dec-03 12:09N 29°46' W 095°05'3 0.4
2017-Dec-03 05:14N 29°44' W 095°08'0 0.0
2017-Dec-03 04:50N 29°44' W 095°08'0 0.0
2017-Dec-03 04:22N 29°44' W 095°08'0 0.2
2017-Dec-03 01:27N 29°44' W 095°07'3 7.0
2017-Dec-03 00:58N 29°47' W 095°05'3 0.1
2017-Dec-02 01:47N 29°45' W 095°06'0 0.0
2017-Dec-01 23:13N 29°45' W 095°06'3 0.4
2017-Dec-01 17:18N 29°44' W 095°03'0 0.6
2017-Dec-01 16:58N 29°44' W 095°03'0 0.2
2017-Dec-01 16:07N 29°44' W 095°03'0 0.0
2017-Dec-01 16:00N 29°44' W 095°03'1 1.9
2017-Dec-01 15:29N 29°45' W 095°04'  
Track history (hours):
 
Tides and Currents Weather Stations Pressure Air Temp Water Temp Dewpoint Dewpoint Depression Visibility Wind Speed Wind Dir Waves Ship Positions

Charles W Clark

Owner: BLESSEY ENTERPRISES INC, HARAHAN, LA. More information available from US FCC via Universal Licensing System and Coast Guard Vessel Documentation Center.

Last reported at 2017-Dec-11 12:42 UTC. Time now 2017-Dec-13 01:47 UTC.
Position N 29°47' W 095°05'.

Length 20 m.

Type: Towing. MMSI: 366933680.

Date/timePositionNaut miles runAvg speedWind from/ knotsBaromVisibWave heightAir tempDewpointWater temp
2017-Dec-11 12:42N 29°47' W 095°05'0 0.1
2017-Dec-11 12:21N 29°47' W 095°05'0 0.8
2017-Dec-11 12:00N 29°47' W 095°04'0 0.9
2017-Dec-11 11:30N 29°47' W 095°04'0 0.7
2017-Dec-11 10:56N 29°47' W 095°05'1 1.3
2017-Dec-11 10:30N 29°46' W 095°05'3 5.2
2017-Dec-11 10:00N 29°44' W 095°03'2 5.0
2017-Dec-11 09:30N 29°42' W 095°01'3 6.2
2017-Dec-11 09:01N 29°40' W 094°58'4 7.1
2017-Dec-11 08:30N 29°37' W 094°57'3 7.1
2017-Dec-11 08:00N 29°34' W 094°55'53 3.3
2017-Dec-10 15:48N 29°50' W 093°57'52 1.1
2017-Dec-08 15:43N 29°31' W 094°53'2 7.7
2017-Dec-08 15:29N 29°32' W 094°54'4 7.6
2017-Dec-08 15:01N 29°35' W 094°56'4 7.4
2017-Dec-08 14:30N 29°39' W 094°58'4 7.5
2017-Dec-08 13:57N 29°42' W 095°01'4 7.1
2017-Dec-08 13:27N 29°45' W 095°04'2 0.1
2017-Dec-08 01:13N 29°46' W 095°05'1 0.7
2017-Dec-08 00:12N 29°46' W 095°06'2 4.2
2017-Dec-07 23:48N 29°47' W 095°05'1 0.0
2017-Dec-06 22:49N 29°47' W 095°05'1 3.1
2017-Dec-06 22:22N 29°46' W 095°05'3 7.3
2017-Dec-06 21:54N 29°44' W 095°08'4 7.3
2017-Dec-06 21:17N 29°43' W 095°13'0 1.4
2017-Dec-06 21:00N 29°44' W 095°14'  
2017-Dec-03 12:09N 29°46' W 095°05'3 0.4
2017-Dec-03 05:14N 29°44' W 095°08'0 0.0
2017-Dec-03 04:50N 29°44' W 095°08'0 0.0
2017-Dec-03 04:22N 29°44' W 095°08'0 0.2
2017-Dec-03 01:27N 29°44' W 095°07'3 7.0
2017-Dec-03 00:58N 29°47' W 095°05'3 0.1
2017-Dec-02 01:47N 29°45' W 095°06'0 0.0
2017-Dec-01 23:13N 29°45' W 095°06'3 0.4
2017-Dec-01 17:18N 29°44' W 095°03'0 0.6
2017-Dec-01 16:58N 29°44' W 095°03'0 0.2
2017-Dec-01 16:07N 29°44' W 095°03'0 0.0
2017-Dec-01 16:00N 29°44' W 095°03'1 1.9
2017-Dec-01 15:29N 29°45' W 095°04'  

Dump ship's entire track history